Time;durP1;ratioP1;P1;durP2;ratioP2;P2;SDS_P1;SDS_P2;PMS_P1;PMS_P2;Temp;Humidity;BMP_temperature;BMP_pressure;BME280_temperature;BME280_humidity;BME280_pressure;Samples;Min_cycle;Max_cycle;Signal;HPM_P1;HPM_P2
2021/06/09 00:01:10;;;;;;;1.95;1.50;;;;;;;12.94;100.00;100146.63;1733578;81;20987;-83
2021/06/09 00:03:37;;;;;;;3.05;1.77;;;;;;;12.90;100.00;100145.04;1686861;84;21022;-84
2021/06/09 00:06:04;;;;;;;2.27;1.72;;;;;;;12.85;100.00;100141.02;1688175;83;21408;-84
2021/06/09 00:08:30;;;;;;;3.42;1.70;;;;;;;12.80;100.00;100141.11;1688409;84;20995;-84
2021/06/09 00:10:57;;;;;;;3.40;1.80;;;;;;;12.78;100.00;100137.05;1688108;83;21022;-83
2021/06/09 00:13:29;;;;;;;3.70;2.00;;;;;;;12.74;100.00;100138.78;1688574;84;21433;-84
2021/06/09 00:16:03;;;;;;;2.20;1.32;;;;;;;12.70;100.00;100142.67;1688103;83;21018;-84
2021/06/09 00:18:29;;;;;;;3.83;2.08;;;;;;;12.66;100.00;100144.38;1685099;85;20967;-84
2021/06/09 00:20:58;;;;;;;1.95;1.42;;;;;;;12.62;100.00;100136.52;1687917;83;21004;-84
2021/06/09 00:23:29;;;;;;;1.72;1.55;;;;;;;12.58;100.00;100136.28;1688413;84;21524;-83
2021/06/09 00:25:56;;;;;;;2.62;1.60;;;;;;;12.57;100.00;100131.13;1688066;83;21022;-83
2021/06/09 00:28:23;;;;;;;1.72;1.62;;;;;;;12.55;100.00;100131.98;1688325;85;20999;-83
2021/06/09 00:30:49;;;;;;;1.98;1.82;;;;;;;12.55;100.00;100141.56;1686785;84;21663;-84
2021/06/09 00:33:15;;;;;;;2.35;1.92;;;;;;;12.54;100.00;100142.69;1686086;84;21052;-84
2021/06/09 00:35:42;;;;;;;2.08;1.80;;;;;;;12.53;100.00;100134.20;1730741;81;21009;-84
2021/06/09 00:38:08;;;;;;;3.10;2.80;;;;;;;12.52;100.00;100132.58;1734533;82;21041;-84
2021/06/09 00:40:36;;;;;;;3.37;2.08;;;;;;;12.53;100.00;100132.27;1681413;84;20965;-83
2021/06/09 00:43:18;;;;;;;3.20;1.82;;;;;;;12.56;100.00;100125.37;1679492;85;21005;-83
2021/06/09 00:45:50;;;;;;;2.37;1.87;;;;;;;12.59;100.00;100126.16;1676918;85;21017;-83
2021/06/09 00:48:18;;;;;;;2.85;1.70;;;;;;;12.61;100.00;100132.13;1683446;84;21518;-84
2021/06/09 00:50:45;;;;;;;5.65;2.05;;;;;;;12.61;100.00;100127.48;1703816;83;21030;-83
2021/06/09 00:56:13;;;;;;;4.40;2.02;;;;;;;12.63;100.00;100136.76;1707406;84;21049;-84
2021/06/09 00:58:43;;;;;;;1.67;1.50;;;;;;;12.63;100.00;100130.72;1682985;83;20997;-84
2021/06/09 01:01:10;;;;;;;2.60;1.77;;;;;;;12.65;100.00;100124.94;1701887;84;20910;-84
2021/06/09 01:03:37;;;;;;;3.85;2.40;;;;;;;12.64;100.00;100123.33;1666350;84;22033;-84
2021/06/09 01:06:04;;;;;;;2.90;1.67;;;;;;;12.64;100.00;100117.84;1679325;84;21008;-83
2021/06/09 01:08:36;;;;;;;2.98;2.12;;;;;;;12.65;100.00;100120.27;1704235;84;21514;-83
2021/06/09 01:11:07;;;;;;;4.05;2.85;;;;;;;12.65;100.00;100123.01;1705378;84;21032;-84
2021/06/09 01:13:34;;;;;;;2.33;2.17;;;;;;;12.64;100.00;100120.59;1694246;84;21035;-83
2021/06/09 01:16:01;;;;;;;2.85;1.75;;;;;;;12.63;100.00;100119.75;1698806;84;21427;-83
2021/06/09 01:18:27;;;;;;;3.83;1.98;;;;;;;12.62;100.00;100121.44;1699123;84;21036;-83
2021/06/09 01:20:54;;;;;;;2.40;1.87;;;;;;;12.62;100.00;100128.30;1735233;81;20982;-84
2021/06/09 01:23:20;;;;;;;2.42;1.55;;;;;;;12.60;100.00;100120.36;1658259;84;20982;-84
2021/06/09 01:25:49;;;;;;;5.35;2.40;;;;;;;12.58;100.00;100124.52;1696830;83;21003;-83
2021/06/09 01:28:17;;;;;;;2.67;2.05;;;;;;;12.58;100.00;100127.25;1684423;85;21049;-84
2021/06/09 01:30:44;;;;;;;3.08;2.08;;;;;;;12.58;100.00;100127.25;1701001;84;21056;-84
2021/06/09 01:33:11;;;;;;;3.80;1.75;;;;;;;12.58;100.00;100127.25;1683334;84;21020;-83
2021/06/09 01:35:37;;;;;;;2.72;2.33;;;;;;;12.60;100.00;100133.25;1734652;80;21057;-84
2021/06/09 01:38:04;;;;;;;3.80;1.80;;;;;;;12.61;100.00;100137.08;1733449;81;21383;-84
2021/06/09 01:40:31;;;;;;;5.08;1.82;;;;;;;12.61;100.00;100130.23;1733403;81;20997;-83
2021/06/09 01:43:02;;;;;;;1.95;1.60;;;;;;;12.60;100.00;100138.73;1733042;82;21340;-83
2021/06/09 01:45:34;;;;;;;3.72;1.70;;;;;;;12.58;100.00;100138.22;1733040;82;21352;-84
2021/06/09 01:48:02;;;;;;;3.60;2.25;;;;;;;12.56;100.00;100137.70;1733085;82;20978;-84
2021/06/09 01:50:29;;;;;;;2.95;1.85;;;;;;;12.52;100.00;100135.32;1680591;84;21528;-84
2021/06/09 01:52:55;;;;;;;3.20;2.22;;;;;;;12.50;100.00;100140.28;1680497;84;21015;-84
2021/06/09 01:55:23;;;;;;;7.90;2.37;;;;;;;12.48;100.00;100141.94;1699573;84;21017;-84
2021/06/09 01:57:51;;;;;;;2.55;1.98;;;;;;;12.45;100.00;100146.66;1695266;84;21058;-84
2021/06/09 02:00:24;;;;;;;1.77;1.62;;;;;;;12.44;100.00;100143.11;1697036;83;20992;-84
2021/06/09 02:02:51;;;;;;;2.70;1.77;;;;;;;12.45;100.00;100140.62;1701899;83;20996;-84
2021/06/09 02:05:17;;;;;;;1.98;1.50;;;;;;;12.45;100.00;100154.88;1702357;83;21472;-83
2021/06/09 02:07:44;;;;;;;2.35;1.80;;;;;;;12.42;100.00;100150.00;1704725;84;20984;-83
2021/06/09 02:10:14;;;;;;;3.87;2.37;;;;;;;12.40;100.00;100145.37;1690053;83;21073;-83
2021/06/09 02:12:43;;;;;;;2.58;1.60;;;;;;;12.39;100.00;100147.31;1695409;84;21535;-83
2021/06/09 02:15:10;;;;;;;13.60;1.95;;;;;;;12.40;100.00;100149.48;1700947;83;21047;-84
2021/06/09 02:17:37;;;;;;;4.12;2.27;;;;;;;12.39;100.00;100147.31;1700806;83;21036;-83
2021/06/09 02:20:05;;;;;;;4.00;2.08;;;;;;;12.43;100.00;100154.36;1701766;84;21016;-84
2021/06/09 02:22:32;;;;;;;4.10;2.22;;;;;;;12.47;100.00;100156.20;1701480;83;21406;-84
2021/06/09 02:24:58;;;;;;;3.00;1.98;;;;;;;12.54;100.00;100160.51;1702207;83;20992;-83
2021/06/09 02:27:25;;;;;;;2.72;2.05;;;;;;;12.60;100.00;100152.45;1699893;83;21011;-84
2021/06/09 02:29:51;;;;;;;2.15;1.80;;;;;;;12.66;100.00;100153.97;1705471;83;21067;-83
2021/06/09 02:32:18;;;;;;;4.65;2.37;;;;;;;12.72;100.00;100155.52;1705167;83;22442;-83
2021/06/09 02:34:44;;;;;;;2.20;1.57;;;;;;;12.79;100.00;100155.95;1703806;84;21497;-83
2021/06/09 02:37:10;;;;;;;2.83;1.77;;;;;;;12.86;100.00;100148.15;1702681;84;21008;-84
2021/06/09 02:39:37;;;;;;;3.77;2.15;;;;;;;12.96;100.00;100150.42;1733465;81;21494;-83
2021/06/09 02:42:04;;;;;;;3.95;1.85;;;;;;;13.05;100.00;100151.36;1732956;81;21005;-84
2021/06/09 02:44:30;;;;;;;2.95;2.25;;;;;;;13.13;100.00;100147.94;1733219;82;21049;-83
2021/06/09 02:46:59;;;;;;;3.47;2.50;;;;;;;13.22;100.00;100146.66;1733038;81;21421;-83
2021/06/09 02:49:28;;;;;;;4.67;2.37;;;;;;;13.31;100.00;100142.93;1682527;84;21421;-84
2021/06/09 02:52:12;;;;;;;3.60;2.47;;;;;;;13.41;100.00;100144.66;1697384;83;21000;-84
2021/06/09 02:54:49;;;;;;;3.10;2.05;;;;;;;13.50;100.00;100144.73;1686618;84;21006;-83
2021/06/09 02:57:41;;;;;;;3.65;2.20;;;;;;;13.62;100.00;100149.15;1704690;84;20997;-84
2021/06/09 03:00:21;;;;;;;4.60;2.95;;;;;;;13.72;100.00;100143.47;1685510;84;21065;-83
2021/06/09 03:03:04;;;;;;;3.47;1.82;;;;;;;13.84;100.00;100144.28;1725115;82;20975;-83
2021/06/09 03:05:44;;;;;;;4.97;3.05;;;;;;;13.97;100.00;100143.45;1676481;84;21057;-84
2021/06/09 03:08:40;;;;;;;4.60;2.65;;;;;;;14.11;100.00;100140.65;1709941;83;21055;-83
2021/06/09 03:11:36;;;;;;;2.85;2.22;;;;;;;14.23;100.00;100139.30;1683159;84;21014;-83
2021/06/09 03:17:06;;;;;;;3.80;2.05;;;;;;;14.53;100.00;100147.36;1744293;80;21036;-83
2021/06/09 03:19:58;;;;;;;2.12;1.82;;;;;;;14.66;100.00;100145.69;1741065;81;20992;-83
2021/06/09 03:22:36;;;;;;;2.55;1.75;;;;;;;14.80;100.00;100145.85;1739626;81;21001;-83
2021/06/09 03:25:02;;;;;;;2.62;1.77;;;;;;;14.97;100.00;100139.64;1731637;82;21403;-84
2021/06/09 03:27:51;;;;;;;2.65;1.40;;;;;;;15.14;100.00;100150.48;1733337;81;21022;-83
2021/06/09 03:30:19;;;;;;;3.50;2.02;;;;;;;15.29;100.00;100148.68;1733222;82;20994;-83
2021/06/09 03:33:01;;;;;;;2.22;1.40;;;;;;;15.47;100.00;100150.34;1741571;81;21046;-83
2021/06/09 03:35:45;;;;;;;1.35;1.10;;;;;;;15.62;100.00;100140.83;1707296;84;21005;-83
2021/06/09 03:38:31;;;;;;;1.22;1.12;;;;;;;15.79;100.00;100142.84;1733964;81;21015;-83
2021/06/09 03:41:00;;;;;;;2.45;1.07;;;;;;;15.96;100.00;100146.76;1703743;82;21033;-83
2021/06/09 03:43:28;;;;;;;1.10;1.00;;;;;;;16.14;100.00;100147.00;1742392;81;21393;-83
2021/06/09 03:45:54;;;;;;;1.30;1.02;;;;;;;16.32;100.00;100153.34;1707632;82;20989;-83
2021/06/09 03:48:21;;;;;;;1.00;0.88;;;;;;;16.48;100.00;100144.80;1707199;83;21014;-83
2021/06/09 03:50:48;;;;;;;1.42;1.00;;;;;;;16.63;100.00;100150.95;1742857;81;21103;-83
2021/06/09 03:53:14;;;;;;;1.77;1.10;;;;;;;16.76;100.00;100146.63;1706286;83;20994;-83
2021/06/09 03:55:44;;;;;;;1.47;0.98;;;;;;;16.92;100.00;100151.64;1708016;82;21017;-83
2021/06/09 03:58:13;;;;;;;1.40;0.95;;;;;;;17.07;100.00;100155.25;1707805;83;20978;-83
2021/06/09 04:00:39;;;;;;;0.70;0.70;;;;;;;17.20;100.00;100156.97;1708401;82;20990;-83
2021/06/09 04:03:06;;;;;;;2.42;0.90;;;;;;;17.35;100.00;100156.19;1686722;83;21033;-83
2021/06/09 04:05:32;;;;;;;1.92;0.90;;;;;;;17.49;100.00;100150.44;1732688;80;20986;-83
2021/06/09 04:07:59;;;;;;;1.75;1.20;;;;;;;17.59;100.00;100148.67;1709995;83;20989;-83
2021/06/09 04:10:26;;;;;;;1.55;0.95;;;;;;;17.69;99.22;100150.25;1686922;83;21005;-83
2021/06/09 04:12:52;;;;;;;0.68;0.60;;;;;;;17.78;97.67;100163.45;1685236;83;21538;-83
2021/06/09 04:15:19;;;;;;;1.27;0.80;;;;;;;17.87;95.47;100153.73;1713326;83;20993;-83
2021/06/09 04:17:48;;;;;;;2.25;1.00;;;;;;;17.97;94.23;100158.28;1708333;82;21014;-83
2021/06/09 04:20:14;;;;;;;1.42;1.00;;;;;;;18.07;92.81;100156.27;1685585;84;21025;-83
2021/06/09 04:22:40;;;;;;;1.62;1.07;;;;;;;18.16;91.64;100155.64;1708630;82;20978;-83
2021/06/09 04:25:09;;;;;;;1.27;1.10;;;;;;;18.24;90.71;100158.31;1686268;84;21397;-83
2021/06/09 04:27:38;;;;;;;0.85;0.78;;;;;;;18.34;90.29;100149.37;1743550;81;21009;-83
2021/06/09 04:30:06;;;;;;;0.95;0.95;;;;;;;18.45;89.35;100150.02;1707816;84;20989;-83
2021/06/09 04:32:55;;;;;;;1.40;1.30;;;;;;;18.56;88.23;100154.54;1707797;82;20962;-83
2021/06/09 04:35:27;;;;;;;1.02;0.80;;;;;;;18.65;86.50;100146.17;1707844;83;21059;-83
2021/06/09 04:37:53;;;;;;;1.10;0.60;;;;;;;18.72;85.39;100145.04;1706470;82;21017;-83
2021/06/09 04:40:25;;;;;;;1.20;1.10;;;;;;;18.79;84.60;100146.70;1707749;84;21045;-83
2021/06/09 04:42:53;;;;;;;1.13;0.83;;;;;;;18.87;83.90;100149.14;1707504;82;21440;-83
2021/06/09 04:45:22;;;;;;;1.75;1.20;;;;;;;18.95;84.27;100150.20;1680084;83;21061;-83
2021/06/09 04:47:49;;;;;;;1.98;1.27;;;;;;;19.05;84.04;100146.98;1687538;84;21014;-83
2021/06/09 04:50:20;;;;;;;2.50;0.98;;;;;;;19.13;82.48;100150.21;1708576;83;21037;-83
2021/06/09 04:52:47;;;;;;;1.12;0.68;;;;;;;19.23;82.25;100146.19;1707325;82;21036;-83
2021/06/09 04:55:14;;;;;;;1.17;1.00;;;;;;;19.33;81.46;100147.91;1707555;84;20993;-83
2021/06/09 04:57:40;;;;;;;0.93;0.60;;;;;;;19.45;81.54;100147.70;1707534;82;21046;-83
2021/06/09 05:00:13;;;;;;;0.93;0.70;;;;;;;19.55;81.80;100145.26;1691896;84;20995;-83
2021/06/09 05:02:39;;;;;;;;;;;;;;;19.70;81.42;100153.48;1655403;84;21035;-83
2021/06/09 05:05:07;;;;;;;1.12;0.90;;;;;;;19.85;80.78;100160.86;1681933;84;20939;-82
2021/06/09 05:07:34;;;;;;;2.35;1.10;;;;;;;19.98;80.02;100159.70;1692323;83;21389;-83
2021/06/09 05:10:01;;;;;;;0.70;0.70;;;;;;;20.18;79.19;100164.27;1676975;84;21364;-83
2021/06/09 05:12:34;;;;;;;0.98;0.90;;;;;;;20.18;79.19;100164.27;1691277;83;21022;-84
2021/06/09 05:15:06;;;;;;;2.12;1.47;;;;;;;20.29;78.97;100156.83;1682346;83;21568;-84
2021/06/09 05:17:45;;;;;;;0.93;0.70;;;;;;;20.37;78.50;100164.19;1664500;84;20994;-83
2021/06/09 05:20:28;;;;;;;0.80;0.80;;;;;;;20.45;76.98;100157.70;1676119;84;21040;-83
2021/06/09 05:23:23;;;;;;;1.10;0.80;;;;;;;20.55;76.06;100164.75;1688729;84;21020;-84
2021/06/09 05:25:50;;;;;;;0.90;0.80;;;;;;;20.67;76.29;100162.47;1690610;83;21142;-83
2021/06/09 05:28:16;;;;;;;1.37;0.98;;;;;;;20.78;75.45;100156.64;1691524;84;21024;-83
2021/06/09 05:30:43;;;;;;;0.98;0.88;;;;;;;20.86;74.43;100152.89;1693280;83;20991;-82
2021/06/09 05:33:10;;;;;;;0.95;0.80;;;;;;;20.89;74.71;100152.16;1672145;84;21015;-82
2021/06/09 05:35:36;;;;;;;1.22;0.80;;;;;;;20.93;74.89;100153.08;1692517;83;21051;-82
2021/06/09 05:38:03;;;;;;;2.12;1.15;;;;;;;20.99;74.01;100154.45;1670724;84;21027;-83
2021/06/09 05:40:29;;;;;;;0.75;0.65;;;;;;;21.09;73.98;100155.05;1691193;83;21620;-82
2021/06/09 05:42:56;;;;;;;2.05;0.72;;;;;;;21.19;72.84;100155.91;1690366;84;21062;-83
2021/06/09 05:45:28;;;;;;;2.95;0.78;;;;;;;21.30;72.33;100157.00;1690539;84;21575;-83
2021/06/09 05:47:55;;;;;;;1.17;0.90;;;;;;;21.37;71.23;100164.12;1668762;85;21049;-83
2021/06/09 05:50:30;;;;;;;0.80;0.80;;;;;;;21.42;70.59;100160.30;1673190;84;21082;-83
2021/06/09 05:52:59;;;;;;;0.85;0.72;;;;;;;21.48;70.34;100162.42;1691720;84;21023;-83
2021/06/09 05:55:27;;;;;;;1.10;0.98;;;;;;;21.57;69.81;100168.41;1691374;84;21571;-83
2021/06/09 05:57:56;;;;;;;1.12;1.00;;;;;;;21.65;70.87;100164.61;1672045;85;21555;-83
2021/06/09 06:00:25;;;;;;;1.37;0.90;;;;;;;21.68;70.64;100162.50;1672304;85;21018;-83
2021/06/09 06:02:52;;;;;;;1.67;1.25;;;;;;;21.70;70.21;100168.50;1678085;84;21425;-83
2021/06/09 06:05:20;;;;;;;0.80;0.65;;;;;;;21.77;69.89;100170.66;1691972;84;21044;-83
2021/06/09 06:07:47;;;;;;;1.67;0.60;;;;;;;21.80;69.90;100169.92;1691867;83;21643;-83
2021/06/09 06:10:14;;;;;;;0.98;0.90;;;;;;;21.83;70.17;100167.21;1691551;84;21022;-84
2021/06/09 06:12:42;;;;;;;0.70;0.70;;;;;;;21.93;69.71;100170.02;1690354;83;21774;-85
2021/06/09 06:15:11;;;;;;;0.98;0.85;;;;;;;22.07;68.59;100173.71;1691105;84;21003;-85
2021/06/09 06:17:41;;;;;;;1.77;0.65;;;;;;;22.14;68.24;100174.46;1690293;83;21090;-87
2021/06/09 06:20:21;;;;;;;1.05;0.70;;;;;;;22.22;68.06;100176.25;1670704;84;21410;-87
2021/06/09 06:22:51;;;;;;;1.15;0.90;;;;;;;22.38;68.70;100176.17;1686681;84;21022;-85
2021/06/09 06:25:23;;;;;;;0.70;0.70;;;;;;;22.57;67.08;100178.16;1692115;84;21042;-83
2021/06/09 06:27:51;;;;;;;;;;;;;;;22.69;66.28;100174.62;1676932;82;21022;-84
2021/06/09 06:30:19;;;;;;;0.85;0.78;;;;;;;22.75;64.93;100173.76;1672360;85;20179;-84
2021/06/09 06:32:50;;;;;;;1.65;1.17;;;;;;;22.80;65.03;100169.28;1672364;85;22384;-84
2021/06/09 06:35:21;;;;;;;0.80;0.70;;;;;;;22.90;64.42;100167.87;1672677;85;21030;-84
2021/06/09 06:37:49;;;;;;;1.07;0.90;;;;;;;23.01;64.25;100177.24;1674574;85;21476;-84
2021/06/09 06:40:27;;;;;;;1.02;0.75;;;;;;;23.04;62.30;100175.70;1672336;85;21332;-83
2021/06/09 06:42:55;;;;;;;0.65;0.65;;;;;;;22.99;61.98;100175.41;1672372;84;21003;-84
2021/06/09 06:45:23;;;;;;;0.68;0.68;;;;;;;22.90;61.84;100177.62;1672707;84;21397;-84
2021/06/09 06:47:52;;;;;;;0.72;0.72;;;;;;;22.94;62.71;100170.11;1669706;84;21002;-83
2021/06/09 06:50:20;;;;;;;0.80;0.78;;;;;;;23.07;62.16;100170.20;1672501;84;20966;-84
2021/06/09 06:52:47;;;;;;;1.17;0.88;;;;;;;23.20;61.59;100165.25;1692875;83;21167;-83
2021/06/09 06:55:14;;;;;;;1.75;0.95;;;;;;;23.34;59.29;100164.66;1674241;84;21030;-83
2021/06/09 06:57:40;;;;;;;0.72;0.72;;;;;;;23.46;60.23;100168.66;1644975;86;21433;-83
2021/06/09 07:00:13;;;;;;;0.50;0.50;;;;;;;23.63;60.65;100174.89;1623495;86;21098;-83
2021/06/09 07:02:40;;;;;;;1.15;1.05;;;;;;;23.66;59.17;100168.56;1681471;84;21421;-83
2021/06/09 07:05:08;;;;;;;0.90;0.82;;;;;;;23.61;58.90;100173.30;1691878;84;21114;-83
2021/06/09 07:07:34;;;;;;;0.88;0.78;;;;;;;23.70;58.23;100173.02;1692082;83;21047;-85
2021/06/09 07:10:04;;;;;;;0.60;0.57;;;;;;;23.84;58.42;100179.45;1691983;84;21000;-85
2021/06/09 07:12:30;;;;;;;1.50;0.93;;;;;;;23.96;58.54;100163.88;1691483;83;20972;-85
2021/06/09 07:14:59;;;;;;;0.82;0.68;;;;;;;24.15;58.65;100169.90;1686969;84;21789;-85
2021/06/09 07:17:25;;;;;;;0.80;0.80;;;;;;;24.27;57.38;100167.47;1643725;86;21029;-85
2021/06/09 07:19:52;;;;;;;2.15;0.62;;;;;;;24.38;56.69;100172.61;1644423;86;21132;-86
2021/06/09 07:22:18;;;;;;;0.95;0.65;;;;;;;24.42;56.09;100174.83;1662376;84;21010;-86
2021/06/09 07:24:45;;;;;;;1.17;1.00;;;;;;;24.43;55.52;100175.06;1653070;86;21062;-85
2021/06/09 07:27:12;;;;;;;0.72;0.70;;;;;;;24.47;55.52;100169.53;1642812;85;21053;-85
2021/06/09 07:29:39;;;;;;;1.50;1.00;;;;;;;24.58;56.53;100173.27;1642817;87;21010;-85
2021/06/09 07:32:07;;;;;;;1.22;0.80;;;;;;;24.70;55.66;100174.98;1642845;85;21035;-85
2021/06/09 07:34:34;;;;;;;3.80;0.93;;;;;;;24.78;56.85;100165.52;1654766;84;21012;-85
2021/06/09 07:37:03;;;;;;;0.90;0.80;;;;;;;24.86;56.15;100164.39;1679522;83;21052;-85
2021/06/09 07:39:39;;;;;;;0.82;0.80;;;;;;;24.88;56.45;100161.22;1690001;84;20999;-83
2021/06/09 07:42:08;;;;;;;1.00;0.70;;;;;;;24.89;54.96;100164.22;1669247;84;21023;-83
2021/06/09 07:44:39;;;;;;;1.02;0.88;;;;;;;24.91;55.06;100170.23;1664041;86;21559;-86
2021/06/09 07:47:08;;;;;;;1.95;1.15;;;;;;;24.88;54.23;100159.23;1684339;83;21479;-85
2021/06/09 07:49:35;;;;;;;1.35;0.78;;;;;;;24.81;53.85;100167.53;1691281;84;21981;-85
2021/06/09 07:52:03;;;;;;;0.85;0.85;;;;;;;24.66;54.48;100166.57;1691596;84;20995;-86
2021/06/09 07:54:29;;;;;;;1.80;1.20;;;;;;;24.55;54.26;100167.62;1676942;83;21013;-85
2021/06/09 07:56:58;;;;;;;1.12;1.02;;;;;;;24.50;56.38;100165.17;1697558;82;21550;-82
2021/06/09 07:59:25;;;;;;;0.80;0.80;;;;;;;24.58;57.10;100164.06;1660199;85;20925;-83
2021/06/09 08:01:51;;;;;;;0.90;0.82;;;;;;;24.67;55.48;100161.78;1679642;84;21500;-85
2021/06/09 08:04:18;;;;;;;1.95;0.90;;;;;;;24.84;54.78;100168.16;1700808;84;21027;-85
2021/06/09 08:06:44;;;;;;;1.10;0.72;;;;;;;24.92;53.66;100164.84;1685873;83;21025;-85
2021/06/09 08:09:15;;;;;;;0.72;0.60;;;;;;;24.93;55.14;100166.46;1742454;81;21022;-82
2021/06/09 08:11:40;;;;;;;1.12;1.00;;;;;;;24.99;56.27;100161.31;1705165;82;20966;-82
2021/06/09 08:14:07;;;;;;;0.80;0.80;;;;;;;25.11;56.43;100166.63;1707383;84;20965;-86
2021/06/09 08:16:35;;;;;;;1.17;0.90;;;;;;;25.14;54.60;100165.05;1707696;82;21033;-82
2021/06/09 08:19:05;;;;;;;1.95;0.93;;;;;;;25.03;53.86;100164.96;1691775;83;21056;-82
2021/06/09 08:21:34;;;;;;;1.07;1.00;;;;;;;24.95;54.55;100164.66;1692313;84;21010;-82
2021/06/09 08:24:01;;;;;;;1.12;1.02;;;;;;;25.04;56.71;100162.36;1673839;84;20995;-82
2021/06/09 08:26:29;;;;;;;1.00;0.72;;;;;;;25.16;57.02;100163.48;1672903;85;21031;-86
2021/06/09 08:28:57;;;;;;;1.27;1.17;;;;;;;25.22;55.87;100163.38;1674228;84;21074;-85
2021/06/09 08:31:28;;;;;;;0.62;0.60;;;;;;;25.28;55.63;100172.20;1707572;82;21023;-85
2021/06/09 08:33:56;;;;;;;1.07;0.88;;;;;;;25.35;55.32;100158.89;1743881;81;21428;-85
2021/06/09 08:36:24;;;;;;;1.57;0.90;;;;;;;25.47;55.28;100156.59;1706145;82;20998;-88
2021/06/09 08:38:54;;;;;;;1.12;1.00;;;;;;;25.63;54.48;100160.48;1740140;82;20967;-88
2021/06/09 08:41:21;;;;;;;0.98;0.78;;;;;;;25.68;54.18;100157.33;1720191;81;21002;-86
2021/06/09 08:43:48;;;;;;;0.93;0.72;;;;;;;25.78;54.86;100160.59;1696716;84;20990;-87
2021/06/09 08:46:17;;;;;;;1.25;0.98;;;;;;;25.91;54.45;100158.49;1705843;84;21448;-88
2021/06/09 08:48:46;;;;;;;1.57;1.10;;;;;;;26.03;53.57;100162.96;1712336;83;21044;-87
2021/06/09 08:51:15;;;;;;;0.80;0.72;;;;;;;26.13;54.36;100162.21;1692011;83;21007;-87
2021/06/09 08:53:45;;;;;;;0.70;0.70;;;;;;;26.27;53.47;100166.30;1675981;85;21023;-87
2021/06/09 08:56:13;;;;;;;1.02;0.80;;;;;;;26.34;52.02;100162.92;1685481;83;21048;-88
2021/06/09 08:58:41;;;;;;;1.32;0.93;;;;;;;26.26;53.04;100162.70;1695228;84;21007;-86
2021/06/09 09:01:08;;;;;;;0.95;0.82;;;;;;;26.20;52.20;100162.06;1696566;83;21003;-87
2021/06/09 09:03:35;;;;;;;1.85;0.90;;;;;;;26.07;53.29;100155.39;1695501;84;21011;-87
2021/06/09 09:06:04;;;;;;;0.95;0.75;;;;;;;26.08;52.27;100161.19;1695040;83;21007;-87
2021/06/09 09:08:31;;;;;;;1.10;1.05;;;;;;;26.20;52.58;100160.66;1695516;84;21130;-87
2021/06/09 09:11:00;;;;;;;2.00;0.70;;;;;;;26.25;52.72;100154.67;1696625;83;21001;-87
2021/06/09 09:13:28;;;;;;;0.57;0.57;;;;;;;26.29;52.70;100155.51;1695017;84;21043;-87
2021/06/09 09:15:55;;;;;;;1.02;0.90;;;;;;;26.50;51.34;100158.98;1695671;83;20908;-87
2021/06/09 09:18:39;;;;;;;1.07;0.98;;;;;;;26.60;50.92;100150.62;1673959;84;21067;-86
2021/06/09 09:21:05;;;;;;;0.85;0.85;;;;;;;26.43;51.48;100151.94;1645113;86;21079;-87
2021/06/09 09:23:35;;;;;;;0.70;0.70;;;;;;;26.22;50.64;100147.07;1647540;87;21580;-87
2021/06/09 09:26:22;;;;;;;2.17;0.72;;;;;;;25.97;51.45;100148.35;1662147;85;21012;-86
2021/06/09 09:29:17;;;;;;;0.80;0.80;;;;;;;26.00;51.14;100146.95;1678397;83;21011;-86
2021/06/09 09:31:58;;;;;;;0.70;0.65;;;;;;;26.16;51.23;100143.25;1724335;81;21003;-86
2021/06/09 09:34:40;;;;;;;0.98;0.70;;;;;;;26.30;50.72;100143.89;1741295;81;21010;-87
2021/06/09 09:37:11;;;;;;;1.15;0.90;;;;;;;26.34;52.08;100136.31;1739556;81;21428;-87
2021/06/09 09:39:41;;;;;;;0.57;0.57;;;;;;;26.52;51.27;100136.38;1741588;81;20967;-86
2021/06/09 09:42:26;;;;;;;1.00;0.90;;;;;;;26.64;48.80;100141.45;1741210;81;21031;-87
2021/06/09 09:44:53;;;;;;;0.57;0.55;;;;;;;26.55;49.83;100134.20;1706396;84;21846;-86
2021/06/09 09:47:23;;;;;;;0.60;0.60;;;;;;;26.34;49.39;100132.72;1734850;82;21496;-87
2021/06/09 09:49:51;;;;;;;0.70;0.70;;;;;;;26.22;51.13;100135.87;1733179;82;21356;-87
2021/06/09 09:52:18;;;;;;;0.50;0.50;;;;;;;26.28;49.42;100136.48;1732954;82;21026;-87
2021/06/09 09:54:47;;;;;;;1.95;0.75;;;;;;;26.42;49.09;100132.14;1732925;81;21792;-87
2021/06/09 09:57:17;;;;;;;0.87;0.77;;;;;;;26.52;49.83;100133.57;1737006;82;21014;-86
2021/06/09 09:59:54;;;;;;;2.52;0.90;;;;;;;26.55;48.49;100132.80;1741048;81;20994;-87
2021/06/09 10:02:21;;;;;;;0.85;0.80;;;;;;;26.57;48.58;100133.21;1743190;81;21069;-86
2021/06/09 10:04:52;;;;;;;1.00;0.88;;;;;;;26.69;48.30;100131.25;1740361;81;20998;-88
2021/06/09 10:07:18;;;;;;;0.80;0.80;;;;;;;26.79;49.71;100122.85;1686713;83;20978;-87
2021/06/09 10:09:47;;;;;;;0.98;0.88;;;;;;;26.77;49.38;100127.25;1732002;82;20990;-86
2021/06/09 10:12:15;;;;;;;1.62;1.10;;;;;;;26.76;48.53;100138.27;1706010;82;21002;-87
2021/06/09 10:14:50;;;;;;;1.00;0.90;;;;;;;26.69;47.86;100136.25;1707397;83;21053;-88
2021/06/09 10:17:21;;;;;;;1.57;0.93;;;;;;;26.55;47.90;100128.59;1707607;82;21013;-87
2021/06/09 10:19:54;;;;;;;0.85;0.85;;;;;;;26.52;49.00;100127.97;1707836;83;20991;-87
2021/06/09 10:22:30;;;;;;;1.27;1.00;;;;;;;26.56;48.56;100128.81;1707584;82;21046;-87
2021/06/09 10:25:01;;;;;;;0.90;0.60;;;;;;;26.66;48.30;100113.84;1706717;83;21005;-87
2021/06/09 10:27:51;;;;;;;0.88;0.70;;;;;;;26.73;49.27;100116.62;1707380;82;21558;-87
2021/06/09 10:30:24;;;;;;;2.35;0.80;;;;;;;26.73;49.28;100118.03;1707587;83;20998;-86
2021/06/09 10:32:58;;;;;;;1.05;0.90;;;;;;;26.61;48.68;100109.42;1693177;82;21013;-87
2021/06/09 10:35:34;;;;;;;0.90;0.68;;;;;;;26.60;47.94;100105.80;1678918;84;21017;-87
2021/06/09 10:38:03;;;;;;;1.22;1.10;;;;;;;26.67;47.56;100108.42;1679361;84;21003;-87
2021/06/09 10:40:30;;;;;;;1.27;0.85;;;;;;;26.62;47.42;100113.81;1675081;85;21095;-87
2021/06/09 10:43:00;;;;;;;0.65;0.65;;;;;;;26.49;49.57;100109.16;1674857;85;21061;-87
2021/06/09 10:45:31;;;;;;;0.85;0.85;;;;;;;26.46;49.59;100107.73;1685030;83;38050;-87
2021/06/09 10:48:01;;;;;;;1.00;0.80;;;;;;;26.51;49.14;100106.77;1690536;84;21007;-87
2021/06/09 10:50:27;;;;;;;1.85;0.90;;;;;;;26.51;49.04;100109.56;1692119;84;21011;-87
2021/06/09 10:52:54;;;;;;;1.67;0.80;;;;;;;26.38;49.64;100099.91;1692319;83;21504;-87
2021/06/09 10:55:21;;;;;;;1.57;1.00;;;;;;;26.08;51.07;100101.00;1690254;84;21033;-87
2021/06/09 10:57:51;;;;;;;0.82;0.80;;;;;;;25.84;52.67;100097.45;1690702;83;21114;-87
2021/06/09 11:00:18;;;;;;;0.88;0.70;;;;;;;25.75;52.42;100089.42;1690521;84;21028;-87
2021/06/09 11:02:45;;;;;;;0.78;0.60;;;;;;;25.69;53.04;100096.00;1690398;83;21004;-87
2021/06/09 11:05:13;;;;;;;1.10;0.90;;;;;;;25.66;51.22;100092.55;1671249;84;21067;-87
2021/06/09 11:07:45;;;;;;;0.82;0.80;;;;;;;25.51;51.84;100090.27;1690698;83;21509;-84
2021/06/09 11:10:32;;;;;;;0.60;0.50;;;;;;;25.38;52.38;100088.20;1691988;84;20996;-85
2021/06/09 11:12:59;;;;;;;0.85;0.85;;;;;;;25.33;54.60;100085.77;1672286;84;21026;-84
2021/06/09 11:15:32;;;;;;;0.68;0.68;;;;;;;25.43;54.32;100082.23;1685355;84;20995;-86
2021/06/09 11:18:00;;;;;;;1.32;0.80;;;;;;;25.63;54.77;100077.16;1652490;86;21058;-85
2021/06/09 11:20:37;;;;;;;0.93;0.88;;;;;;;26.02;54.28;100074.59;1653225;86;21096;-86
2021/06/09 11:23:14;;;;;;;1.12;0.88;;;;;;;26.34;54.66;100076.70;1651164;86;21051;-85
2021/06/09 11:25:47;;;;;;;1.17;0.80;;;;;;;26.57;54.38;100064.56;1647130;87;21365;-87
2021/06/09 11:28:37;;;;;;;0.68;0.68;;;;;;;26.62;51.41;100061.19;1649575;86;21014;-87
2021/06/09 11:31:26;;;;;;;0.70;0.70;;;;;;;26.52;50.49;100055.13;1673032;85;21023;-86
2021/06/09 11:34:01;;;;;;;0.72;0.70;;;;;;;26.71;51.13;100058.19;1646928;85;21539;-86
2021/06/09 11:36:33;;;;;;;0.78;0.68;;;;;;;27.16;50.02;100050.78;1638562;86;21063;-86
2021/06/09 11:39:10;;;;;;;1.22;0.98;;;;;;;27.65;47.66;100047.11;1643849;87;21003;-87
2021/06/09 11:41:41;;;;;;;1.15;0.85;;;;;;;28.08;46.09;100048.97;1643816;85;21058;-86